Time;durP1;ratioP1;P1;durP2;ratioP2;P2;SDS_P1;SDS_P2;PMS_P1;PMS_P2;Temp;Humidity;BMP_temperature;BMP_pressure;BME280_temperature;BME280_humidity;BME280_pressure;Samples;Min_cycle;Max_cycle;Signal;HPM_P1;HPM_P2
2021/01/23 00:00:41;;;;;;;3.72;2.00;;;10.20;87.80;;;;;;4983840;28;20794;-55
2021/01/23 00:03:11;;;;;;;1.58;1.48;;;10.10;85.50;;;;;;4982277;28;20287;-53
2021/01/23 00:05:42;;;;;;;2.45;1.77;;;10.10;89.40;;;;;;4964691;29;20198;-55
2021/01/23 00:08:12;;;;;;;1.90;1.80;;;10.10;92.10;;;;;;4965297;28;20246;-55
2021/01/23 00:10:43;;;;;;;1.73;1.63;;;10.00;89.10;;;;;;4973558;28;20218;-55
2021/01/23 00:13:15;;;;;;;2.13;1.92;;;10.00;88.40;;;;;;4975656;28;20237;-53
2021/01/23 00:15:45;;;;;;;2.10;1.95;;;10.00;87.90;;;;;;4988525;28;20204;-55
2021/01/23 00:18:15;;;;;;;2.25;2.05;;;9.90;87.10;;;;;;4989105;28;20209;-55
2021/01/23 00:20:45;;;;;;;2.30;2.10;;;9.80;90.10;;;;;;4973283;28;20334;-54
2021/01/23 00:23:15;;;;;;;3.38;2.05;;;9.70;91.00;;;;;;4965235;28;20301;-54
2021/01/23 00:25:45;;;;;;;2.25;2.15;;;9.60;90.30;;;;;;4972622;28;20214;-53
2021/01/23 00:28:17;;;;;;;2.25;2.15;;;9.50;91.30;;;;;;4980306;28;20745;-54
2021/01/23 00:30:47;;;;;;;2.42;1.80;;;9.50;90.80;;;;;;4980242;28;20310;-55
2021/01/23 00:33:17;;;;;;;2.28;1.83;;;9.40;89.30;;;;;;4957065;28;20287;-55
2021/01/23 00:35:47;;;;;;;1.80;1.70;;;9.30;90.50;;;;;;4983179;28;20209;-57
2021/01/23 00:38:18;;;;;;;1.70;1.60;;;9.20;90.50;;;;;;4981416;28;20545;-56
2021/01/23 00:40:48;;;;;;;2.25;2.05;;;9.20;90.90;;;;;;4979814;28;20291;-58
2021/01/23 00:43:20;;;;;;;2.33;2.13;;;9.20;92.00;;;;;;4983893;28;20251;-54
2021/01/23 00:45:50;;;;;;;2.58;2.38;;;9.20;91.50;;;;;;4976285;28;20312;-57
2021/01/23 00:48:20;;;;;;;3.60;2.42;;;9.10;91.50;;;;;;4965576;28;20259;-55
2021/01/23 00:50:50;;;;;;;2.40;2.20;;;9.00;92.60;;;;;;4970468;28;20717;-57
2021/01/23 00:53:20;;;;;;;3.30;2.47;;;9.00;95.40;;;;;;4981580;28;20204;-56
2021/01/23 00:55:51;;;;;;;2.83;2.38;;;8.90;94.00;;;;;;4972678;28;20211;-55
2021/01/23 00:58:22;;;;;;;3.58;3.25;;;8.80;95.10;;;;;;4972713;28;20205;-53
2021/01/23 01:00:52;;;;;;;2.22;2.03;;;8.80;95.60;;;;;;4977976;28;20221;-54
2021/01/23 01:03:22;;;;;;;2.35;2.05;;;8.60;94.60;;;;;;4966231;28;20260;-55
2021/01/23 01:05:52;;;;;;;2.60;2.22;;;8.60;94.50;;;;;;4963698;28;20233;-53
2021/01/23 01:08:22;;;;;;;2.10;1.90;;;8.50;94.70;;;;;;4971990;28;20335;-55
2021/01/23 01:10:53;;;;;;;2.70;2.50;;;8.50;94.70;;;;;;4981816;28;20210;-54
2021/01/23 01:13:25;;;;;;;2.90;2.70;;;8.40;95.00;;;;;;4983852;28;20209;-54
2021/01/23 01:15:55;;;;;;;2.30;2.10;;;8.30;94.50;;;;;;4981805;28;20200;-52
2021/01/23 01:18:25;;;;;;;2.15;1.95;;;8.30;94.60;;;;;;4976997;28;20212;-54
2021/01/23 01:20:55;;;;;;;2.30;2.20;;;8.20;94.40;;;;;;4985388;28;20279;-54
2021/01/23 01:23:26;;;;;;;2.20;2.10;;;8.20;95.20;;;;;;4977692;28;20204;-55
2021/01/23 01:25:56;;;;;;;2.60;2.40;;;8.10;95.40;;;;;;4975766;28;20211;-54
2021/01/23 01:28:27;;;;;;;2.65;2.45;;;8.10;95.20;;;;;;4985740;28;20347;-55
2021/01/23 01:30:57;;;;;;;2.50;2.25;;;8.00;95.80;;;;;;4983058;28;20513;-54
2021/01/23 01:33:27;;;;;;;2.30;2.10;;;8.00;95.70;;;;;;4984061;28;20216;-52
2021/01/23 01:35:57;;;;;;;4.35;2.30;;;7.90;96.10;;;;;;4983894;28;20232;-55
2021/01/23 01:38:27;;;;;;;2.83;2.33;;;7.90;95.80;;;;;;4985908;28;20221;-54
2021/01/23 01:40:57;;;;;;;2.65;2.45;;;7.90;96.30;;;;;;4984639;28;20724;-52
2021/01/23 01:43:28;;;;;;;2.92;2.30;;;7.80;96.20;;;;;;4981272;28;20209;-54
2021/01/23 01:45:59;;;;;;;3.13;2.67;;;7.80;96.60;;;;;;4969099;28;20197;-55
2021/01/23 01:48:29;;;;;;;2.80;2.60;;;7.70;96.60;;;;;;4981170;28;20221;-51
2021/01/23 01:50:59;;;;;;;3.95;2.95;;;7.70;97.60;;;;;;4982964;28;20212;-54
2021/01/23 01:53:29;;;;;;;3.15;2.85;;;7.60;99.90;;;;;;4975698;28;20213;-53
2021/01/23 01:56:00;;;;;;;4.30;2.80;;;7.60;99.30;;;;;;4972298;28;20578;-51
2021/01/23 01:58:31;;;;;;;2.80;2.50;;;7.60;98.50;;;;;;4978074;28;20621;-52
2021/01/23 02:01:01;;;;;;;3.60;3.30;;;7.50;99.50;;;;;;4966556;28;20269;-48
2021/01/23 02:04:06;;;;;;;2.88;2.60;;;7.50;98.70;;;;;;4966359;28;20220;-53
2021/01/23 02:07:01;;;;;;;3.17;2.83;;;7.40;99.30;;;;;;4985075;28;20211;-52
2021/01/23 02:09:45;;;;;;;3.30;2.90;;;7.40;98.80;;;;;;4980847;28;20204;-53
2021/01/23 02:12:24;;;;;;;3.22;2.95;;;7.40;99.40;;;;;;4976277;28;20228;-54
2021/01/23 02:15:01;;;;;;;4.03;3.10;;;7.30;99.90;;;;;;4978019;28;20594;-51
2021/01/23 02:17:45;;;;;;;2.90;2.70;;;7.10;99.10;;;;;;4971047;28;20256;-51
2021/01/23 02:20:33;;;;;;;2.90;2.70;;;7.10;99.50;;;;;;4965790;28;20229;-53
2021/01/23 02:23:13;;;;;;;3.15;2.88;;;7.10;99.40;;;;;;4975331;28;20198;-48
2021/01/23 02:26:04;;;;;;;3.10;2.80;;;7.10;99.90;;;;;;4973957;28;20211;-50
2021/01/23 02:29:04;;;;;;;4.05;2.83;;;7.00;99.90;;;;;;4985127;28;20189;-50
2021/01/23 02:31:39;;;;;;;3.25;2.97;;;7.00;99.90;;;;;;4975913;28;20197;-51
2021/01/23 02:34:11;;;;;;;4.85;2.88;;;6.90;99.90;;;;;;4966242;28;20258;-50
2021/01/23 02:36:43;;;;;;;3.90;3.10;;;6.90;99.80;;;;;;4979124;28;20212;-51
2021/01/23 02:39:14;;;;;;;4.05;3.72;;;6.90;99.90;;;;;;4976220;28;20201;-53
2021/01/23 02:41:46;;;;;;;6.45;4.18;;;6.90;99.90;;;;;;4969428;28;20244;-52
2021/01/23 02:44:16;;;;;;;5.43;4.50;;;6.90;99.90;;;;;;4966264;28;20200;-52
2021/01/23 02:46:49;;;;;;;4.25;3.83;;;6.80;99.90;;;;;;4975703;28;20270;-51
2021/01/23 02:49:20;;;;;;;5.13;4.63;;;6.70;99.90;;;;;;4985352;28;20239;-51
2021/01/23 02:51:55;;;;;;;5.00;4.60;;;6.70;99.90;;;;;;4976513;28;20662;-52
2021/01/23 02:54:31;;;;;;;4.63;4.20;;;6.70;99.90;;;;;;4967742;28;20256;-51
2021/01/23 02:57:03;;;;;;;4.97;4.35;;;6.50;99.90;;;;;;4984195;28;20200;-53
2021/01/23 02:59:35;;;;;;;4.85;4.40;;;6.30;99.90;;;;;;4985460;28;20196;-53
2021/01/23 03:02:11;;;;;;;5.35;4.85;;;6.10;99.90;;;;;;4974852;28;20220;-52
2021/01/23 03:04:44;;;;;;;5.80;5.30;;;6.00;99.90;;;;;;4976366;28;20204;-53
2021/01/23 03:07:16;;;;;;;6.10;5.50;;;5.90;99.90;;;;;;4983882;28;20243;-53
2021/01/23 03:09:46;;;;;;;6.55;6.00;;;5.80;99.90;;;;;;4981273;28;20219;-51
2021/01/23 03:12:17;;;;;;;5.93;5.38;;;5.80;99.90;;;;;;4972509;28;20236;-53
2021/01/23 03:14:48;;;;;;;5.82;5.32;;;5.80;99.90;;;;;;4981746;28;20211;-53
2021/01/23 03:17:19;;;;;;;7.43;5.07;;;5.70;99.90;;;;;;4969798;28;20303;-47
2021/01/23 03:19:49;;;;;;;6.00;5.50;;;5.80;99.90;;;;;;4969402;28;20251;-51
2021/01/23 03:22:19;;;;;;;5.95;5.43;;;5.70;99.90;;;;;;4981954;28;20239;-50
2021/01/23 03:24:49;;;;;;;5.65;5.25;;;5.60;99.90;;;;;;4984191;28;20200;-50
2021/01/23 03:27:19;;;;;;;7.13;6.45;;;5.60;99.90;;;;;;4966971;28;20300;-50
2021/01/23 03:29:49;;;;;;;7.18;6.47;;;5.70;99.90;;;;;;4973954;28;20519;-51
2021/01/23 03:32:20;;;;;;;8.07;7.10;;;5.60;99.90;;;;;;4977440;28;20272;-48
2021/01/23 03:34:50;;;;;;;7.00;6.20;;;5.60;99.90;;;;;;4982511;28;20247;-48
2021/01/23 03:37:20;;;;;;;6.90;6.30;;;5.50;99.90;;;;;;4976055;28;20196;-49
2021/01/23 03:39:51;;;;;;;8.32;7.50;;;5.30;99.90;;;;;;4975297;28;20201;-49
2021/01/23 03:42:21;;;;;;;8.48;7.78;;;5.20;99.90;;;;;;4983728;28;20212;-50
2021/01/23 03:44:51;;;;;;;12.85;11.55;;;5.20;99.90;;;;;;4973762;28;20288;-48
2021/01/23 03:47:22;;;;;;;13.60;12.30;;;5.20;99.90;;;;;;4974624;28;20301;-48
2021/01/23 03:49:53;;;;;;;18.75;16.52;;;5.20;99.90;;;;;;4972894;28;20203;-48
2021/01/23 03:52:23;;;;;;;17.35;15.20;;;5.10;99.90;;;;;;4981283;28;20212;-49
2021/01/23 03:54:53;;;;;;;16.55;14.00;;;5.10;99.90;;;;;;4974618;28;20225;-47
2021/01/23 03:57:23;;;;;;;15.50;13.90;;;5.10;99.90;;;;;;4978939;28;20295;-51
2021/01/23 03:59:53;;;;;;;15.80;14.32;;;5.00;99.90;;;;;;4974642;28;20194;-51
2021/01/23 04:02:24;;;;;;;14.88;13.38;;;5.00;99.90;;;;;;4974409;28;20599;-50
2021/01/23 04:04:54;;;;;;;19.83;17.77;;;5.00;99.90;;;;;;4983595;28;20284;-51
2021/01/23 04:07:24;;;;;;;18.17;16.25;;;5.00;99.90;;;;;;4982504;28;20204;-50
2021/01/23 04:09:54;;;;;;;18.40;16.30;;;4.90;99.90;;;;;;4978238;28;20197;-48
2021/01/23 04:12:25;;;;;;;20.98;18.88;;;4.80;99.90;;;;;;4979630;28;20236;-50
2021/01/23 04:14:55;;;;;;;25.50;22.05;;;4.80;99.90;;;;;;4979052;28;20273;-50
2021/01/23 04:17:26;;;;;;;24.13;21.67;;;4.80;99.90;;;;;;4982290;28;20245;-48
2021/01/23 04:19:56;;;;;;;23.75;21.45;;;4.80;99.90;;;;;;4980489;28;20209;-50
2021/01/23 04:22:26;;;;;;;22.52;20.27;;;4.80;99.90;;;;;;4973139;28;20228;-47
2021/01/23 04:24:56;;;;;;;23.92;21.38;;;4.70;99.90;;;;;;4977772;28;20221;-49
2021/01/23 04:27:26;;;;;;;19.60;17.80;;;4.60;99.90;;;;;;4977351;28;20204;-49
2021/01/23 04:29:57;;;;;;;20.13;18.13;;;4.50;99.90;;;;;;4969667;28;20208;-51
2021/01/23 04:32:28;;;;;;;19.48;17.58;;;4.40;99.90;;;;;;4973077;28;20301;-48
2021/01/23 04:34:58;;;;;;;20.73;18.52;;;4.40;99.90;;;;;;4977494;28;20204;-50
2021/01/23 04:37:28;;;;;;;25.10;22.50;;;4.40;99.90;;;;;;4965794;28;20209;-52
2021/01/23 04:39:58;;;;;;;24.85;22.20;;;4.40;99.90;;;;;;4964934;28;20194;-54
2021/01/23 04:42:32;;;;;;;30.35;22.90;;;4.30;99.90;;;;;;4967183;28;20745;-53
2021/01/23 04:45:02;;;;;;;27.75;23.77;;;4.30;99.90;;;;;;4986871;28;20204;-53
2021/01/23 04:47:33;;;;;;;24.90;22.35;;;4.20;99.90;;;;;;4975537;28;20220;-51
2021/01/23 04:50:06;;;;;;;27.23;22.10;;;4.10;99.90;;;;;;4972923;28;20208;-52
2021/01/23 04:52:38;;;;;;;21.98;19.60;;;4.10;99.90;;;;;;4970588;28;20578;-49
2021/01/23 04:55:09;;;;;;;22.15;19.83;;;4.20;99.90;;;;;;4981811;28;20299;-52
2021/01/23 04:57:42;;;;;;;20.73;18.70;;;4.10;99.90;;;;;;4977994;28;20212;-53
2021/01/23 05:00:14;;;;;;;20.65;18.65;;;4.20;99.90;;;;;;4983246;28;20211;-54
2021/01/23 05:02:58;;;;;;;22.73;19.08;;;4.10;99.90;;;;;;4973902;28;20212;-55
2021/01/23 05:05:28;;;;;;;20.38;17.95;;;3.90;99.90;;;;;;4977607;28;20661;-52
2021/01/23 05:08:11;;;;;;;20.88;18.50;;;3.90;99.90;;;;;;4983197;28;20275;-51
2021/01/23 05:10:44;;;;;;;23.63;19.90;;;3.80;99.90;;;;;;4983279;28;20235;-53
2021/01/23 05:13:16;;;;;;;20.20;18.10;;;3.80;99.90;;;;;;4983929;28;20612;-53
2021/01/23 05:15:47;;;;;;;16.90;15.18;;;3.80;99.90;;;;;;4984848;28;20216;-53
2021/01/23 05:18:19;;;;;;;17.92;16.10;;;3.80;99.90;;;;;;4978876;28;20216;-53
2021/01/23 05:20:50;;;;;;;17.48;15.60;;;3.70;99.90;;;;;;4979767;28;20802;-53
2021/01/23 05:23:21;;;;;;;15.45;13.93;;;3.70;99.90;;;;;;4980689;28;20200;-52
2021/01/23 05:25:53;;;;;;;14.98;13.25;;;3.90;99.90;;;;;;4982208;28;20259;-49
2021/01/23 05:28:30;;;;;;;15.15;13.38;;;3.90;99.90;;;;;;4979112;28;20204;-51
2021/01/23 05:31:01;;;;;;;13.23;11.18;;;3.90;99.90;;;;;;4980503;28;20247;-52
2021/01/23 05:33:33;;;;;;;12.98;11.40;;;3.80;99.90;;;;;;4982278;28;20209;-53
2021/01/23 05:36:05;;;;;;;15.07;11.30;;;3.80;99.90;;;;;;4972895;28;20221;-51
2021/01/23 05:38:37;;;;;;;13.27;11.20;;;3.70;99.90;;;;;;4979306;28;20376;-52
2021/01/23 05:41:14;;;;;;;13.27;11.30;;;3.70;99.90;;;;;;4984850;28;20295;-50
2021/01/23 05:43:46;;;;;;;12.45;11.15;;;3.70;99.90;;;;;;4985714;28;20216;-48
2021/01/23 05:46:18;;;;;;;11.40;9.75;;;3.60;99.90;;;;;;4979726;28;20224;-49
2021/01/23 05:48:50;;;;;;;12.75;11.30;;;3.60;99.90;;;;;;4976009;28;20292;-52
2021/01/23 05:51:21;;;;;;;12.57;11.25;;;3.60;99.90;;;;;;4967921;28;20233;-51
2021/01/23 05:53:52;;;;;;;13.98;11.55;;;3.60;99.90;;;;;;4974259;28;20216;-49
2021/01/23 05:56:22;;;;;;;13.48;12.07;;;3.50;99.90;;;;;;4973865;28;20248;-48
2021/01/23 05:58:53;;;;;;;15.82;13.68;;;3.50;99.90;;;;;;4975108;28;20256;-49
2021/01/23 06:01:23;;;;;;;16.48;13.10;;;3.50;99.90;;;;;;4976688;28;20229;-48
2021/01/23 06:03:57;;;;;;;19.70;14.25;;;3.40;99.90;;;;;;4981139;28;20578;-50
2021/01/23 06:06:43;;;;;;;17.15;15.00;;;3.40;99.90;;;;;;4969712;28;20205;-50
2021/01/23 06:09:38;;;;;;;19.17;13.77;;;3.30;99.90;;;;;;4967565;28;20231;-51
2021/01/23 06:12:40;;;;;;;14.30;12.82;;;3.30;99.90;;;;;;4981480;28;20251;-49
2021/01/23 06:15:34;;;;;;;17.17;13.27;;;3.30;99.90;;;;;;4979385;28;20216;-47
2021/01/23 06:18:06;;;;;;;16.67;14.07;;;3.30;99.90;;;;;;4975515;28;20278;-49
2021/01/23 06:20:54;;;;;;;19.25;14.93;;;3.20;99.90;;;;;;4972693;28;20234;-47
2021/01/23 06:23:44;;;;;;;15.43;13.40;;;3.20;99.90;;;;;;4985398;28;20259;-48
2021/01/23 06:26:14;;;;;;;17.13;13.50;;;3.10;99.90;;;;;;4974704;28;20196;-47
2021/01/23 06:28:52;;;;;;;16.85;12.85;;;3.10;99.90;;;;;;4985073;28;20213;-49
2021/01/23 06:31:36;;;;;;;19.42;13.82;;;3.10;99.90;;;;;;4972461;28;20232;-46
2021/01/23 06:34:26;;;;;;;15.55;13.88;;;3.00;99.90;;;;;;4969709;28;20267;-46
2021/01/23 06:37:21;;;;;;;17.25;13.48;;;3.00;99.90;;;;;;4976187;28;20220;-48
2021/01/23 06:40:09;;;;;;;16.70;14.02;;;3.00;99.90;;;;;;4975471;28;20304;-48
2021/01/23 06:42:41;;;;;;;17.35;15.45;;;2.90;99.90;;;;;;4979509;28;20260;-49
2021/01/23 06:45:22;;;;;;;16.70;14.32;;;2.80;99.90;;;;;;4984643;28;20605;-51
2021/01/23 06:47:53;;;;;;;17.58;15.25;;;2.90;99.90;;;;;;4982880;28;20274;-50
2021/01/23 06:50:44;;;;;;;19.10;17.10;;;2.80;99.90;;;;;;4982444;28;20264;-50
2021/01/23 06:53:23;;;;;;;22.77;16.92;;;2.80;99.90;;;;;;4965499;28;20205;-49
2021/01/23 06:55:55;;;;;;;22.65;18.90;;;2.80;99.90;;;;;;4972330;28;20213;-47
2021/01/23 06:58:27;;;;;;;20.98;18.50;;;2.70;99.90;;;;;;4982768;28;20205;-51
2021/01/23 07:00:58;;;;;;;21.77;18.52;;;2.70;99.90;;;;;;4974231;28;20663;-52
2021/01/23 07:03:30;;;;;;;19.85;16.73;;;2.60;99.90;;;;;;4980096;28;20205;-49
2021/01/23 07:06:01;;;;;;;22.27;15.95;;;2.60;99.90;;;;;;4979578;28;20228;-51
2021/01/23 07:08:33;;;;;;;18.75;16.45;;;2.60;99.90;;;;;;4971444;28;20201;-47
2021/01/23 07:11:24;;;;;;;20.02;17.13;;;2.50;99.90;;;;;;4982585;28;20505;-51
2021/01/23 07:14:03;;;;;;;25.90;19.38;;;2.60;99.90;;;;;;4980180;28;20220;-48
2021/01/23 07:16:34;;;;;;;20.10;17.50;;;2.50;99.90;;;;;;4977960;28;20197;-48
2021/01/23 07:19:06;;;;;;;24.42;18.67;;;2.40;99.90;;;;;;4978004;28;20236;-48
2021/01/23 07:21:40;;;;;;;20.52;18.33;;;2.40;99.90;;;;;;4973112;28;20327;-49
2021/01/23 07:24:11;;;;;;;22.00;17.63;;;2.40;99.90;;;;;;4982159;28;20300;-47
2021/01/23 07:26:42;;;;;;;20.58;18.38;;;2.40;99.90;;;;;;4979093;28;20208;-46
2021/01/23 07:29:12;;;;;;;24.88;19.90;;;2.40;99.90;;;;;;4983763;28;20201;-48
2021/01/23 07:31:42;;;;;;;27.60;21.98;;;2.30;99.90;;;;;;4975603;28;20271;-46
2021/01/23 07:34:13;;;;;;;23.05;19.17;;;2.30;99.90;;;;;;4984184;28;20226;-49
2021/01/23 07:36:45;;;;;;;21.13;17.95;;;2.30;99.90;;;;;;4979285;28;20205;-50
2021/01/23 07:39:17;;;;;;;18.60;16.15;;;2.30;99.90;;;;;;4970268;28;20201;-50
2021/01/23 07:41:50;;;;;;;19.25;17.27;;;2.30;99.90;;;;;;4983035;28;20283;-47
2021/01/23 07:44:21;;;;;;;19.40;17.50;;;2.30;99.90;;;;;;4984009;28;20267;-46
2021/01/23 07:46:52;;;;;;;22.02;16.88;;;2.20;99.90;;;;;;4971965;28;20320;-50
2021/01/23 07:49:23;;;;;;;18.65;16.65;;;2.20;99.90;;;;;;4983574;28;20204;-51
2021/01/23 07:52:05;;;;;;;20.30;15.77;;;2.20;99.90;;;;;;4983633;28;20196;-48
2021/01/23 07:54:50;;;;;;;20.20;17.60;;;2.20;99.90;;;;;;4983766;28;20856;-45
2021/01/23 07:57:20;;;;;;;20.50;17.15;;;2.10;99.90;;;;;;4969581;28;20216;-48
2021/01/23 07:59:51;;;;;;;20.25;18.15;;;2.10;99.90;;;;;;4983490;28;20208;-51
2021/01/23 08:02:22;;;;;;;19.60;17.60;;;2.10;99.90;;;;;;4980271;28;20336;-48
2021/01/23 08:04:53;;;;;;;20.98;17.95;;;2.00;99.90;;;;;;4971895;28;20209;-47
2021/01/23 08:07:29;;;;;;;25.20;18.60;;;2.00;99.90;;;;;;4983047;28;20201;-47
2021/01/23 08:10:12;;;;;;;16.27;14.57;;;2.00;99.90;;;;;;4981126;28;20210;-46
2021/01/23 08:12:55;;;;;;;23.92;18.30;;;2.00;99.90;;;;;;4972625;28;20243;-49
2021/01/23 08:15:27;;;;;;;16.90;14.90;;;1.90;99.90;;;;;;4981207;28;20200;-50
2021/01/23 08:17:59;;;;;;;17.92;16.10;;;1.90;99.90;;;;;;4982987;28;20208;-46
2021/01/23 08:20:34;;;;;;;19.77;15.88;;;1.80;99.90;;;;;;4982691;28;20280;-45
2021/01/23 08:23:10;;;;;;;22.98;16.80;;;1.90;99.90;;;;;;4981814;28;20238;-50
2021/01/23 08:25:48;;;;;;;18.88;15.73;;;1.90;99.90;;;;;;4980171;28;20203;-45
2021/01/23 08:28:29;;;;;;;19.98;16.70;;;1.80;99.90;;;;;;4982944;28;20300;-49
2021/01/23 08:31:12;;;;;;;18.27;16.20;;;1.80;99.90;;;;;;4980957;28;20208;-48
2021/01/23 08:33:43;;;;;;;18.33;16.15;;;1.80;99.90;;;;;;4983244;28;20207;-45
2021/01/23 08:36:13;;;;;;;20.70;16.83;;;1.70;99.90;;;;;;4981616;28;20235;-45
2021/01/23 08:38:43;;;;;;;19.10;16.23;;;1.80;99.90;;;;;;4983121;28;20611;-45
2021/01/23 08:41:15;;;;;;;18.60;16.60;;;1.70;99.90;;;;;;4981528;28;20232;-46
2021/01/23 08:43:44;;;;;;;18.35;16.05;;;1.70;99.90;;;;;;4982871;28;20359;-47
2021/01/23 08:46:14;;;;;;;19.10;15.93;;;1.70;99.90;;;;;;4976639;28;20202;-49
2021/01/23 08:48:44;;;;;;;17.63;15.77;;;1.70;99.90;;;;;;4979510;28;20243;-47
2021/01/23 08:51:15;;;;;;;18.17;16.30;;;1.70;99.90;;;;;;4982087;28;20267;-46
2021/01/23 08:53:45;;;;;;;20.77;16.00;;;1.60;99.90;;;;;;4983147;28;20201;-47
2021/01/23 08:56:16;;;;;;;17.92;15.57;;;1.60;99.90;;;;;;4981749;28;20232;-48
2021/01/23 08:58:46;;;;;;;17.38;15.63;;;1.50;99.90;;;;;;4968019;28;20520;-46
2021/01/23 09:01:16;;;;;;;20.00;16.92;;;1.60;99.90;;;;;;4967590;28;20232;-50
2021/01/23 09:03:47;;;;;;;19.25;15.10;;;1.60;99.90;;;;;;4974272;28;20295;-48
2021/01/23 09:06:17;;;;;;;18.95;16.02;;;1.60;99.90;;;;;;4975504;28;20242;-48
2021/01/23 09:08:47;;;;;;;17.83;15.95;;;1.50;99.90;;;;;;4979242;28;20205;-51
2021/01/23 09:11:18;;;;;;;17.17;15.38;;;1.50;99.90;;;;;;4966268;28;20359;-46
2021/01/23 09:13:48;;;;;;;16.00;14.35;;;1.40;99.90;;;;;;4982949;28;20201;-46
2021/01/23 09:16:18;;;;;;;17.20;15.32;;;1.40;99.90;;;;;;4983019;28;20208;-45
2021/01/23 09:18:48;;;;;;;18.20;16.30;;;1.40;99.90;;;;;;4982405;28;20212;-46
2021/01/23 09:21:18;;;;;;;17.38;15.60;;;1.30;99.90;;;;;;4979518;28;20291;-46
2021/01/23 09:23:48;;;;;;;16.83;15.02;;;1.40;99.90;;;;;;4971451;28;20296;-45
2021/01/23 09:26:20;;;;;;;17.58;14.52;;;1.40;99.90;;;;;;4981898;28;20678;-47
2021/01/23 09:28:49;;;;;;;18.17;14.85;;;1.40;99.90;;;;;;4982603;28;20263;-47
2021/01/23 09:31:19;;;;;;;16.88;14.57;;;1.40;99.90;;;;;;4971510;28;20239;-44
2021/01/23 09:33:50;;;;;;;17.15;15.20;;;1.30;99.90;;;;;;4986037;28;20232;-48
2021/01/23 09:36:20;;;;;;;18.10;15.38;;;1.30;99.90;;;;;;4982614;28;20205;-46
2021/01/23 09:38:50;;;;;;;19.77;15.60;;;1.30;99.90;;;;;;4969852;28;20296;-48
2021/01/23 09:41:21;;;;;;;16.98;14.95;;;1.30;99.90;;;;;;4980535;28;20229;-47
2021/01/23 09:43:51;;;;;;;17.20;14.50;;;1.20;99.90;;;;;;4979968;28;20228;-46
2021/01/23 09:46:23;;;;;;;18.35;16.13;;;1.10;99.90;;;;;;4983486;28;20236;-46
2021/01/23 09:48:53;;;;;;;19.20;15.48;;;1.20;99.90;;;;;;4981312;28;20263;-47
2021/01/23 09:51:23;;;;;;;15.82;14.15;;;1.20;99.90;;;;;;4975641;28;20204;-48
2021/01/23 09:53:53;;;;;;;16.85;14.50;;;1.10;99.90;;;;;;4967992;28;20206;-50
2021/01/23 09:56:24;;;;;;;15.75;14.18;;;1.10;99.90;;;;;;4974420;28;20201;-46
2021/01/23 09:58:54;;;;;;;15.40;13.82;;;1.10;99.90;;;;;;4985906;28;20206;-51
2021/01/23 10:01:24;;;;;;;13.88;11.30;;;1.20;99.90;;;;;;4976793;28;20275;-47
2021/01/23 10:03:54;;;;;;;13.43;12.02;;;1.20;99.90;;;;;;4985662;28;20224;-49
2021/01/23 10:06:24;;;;;;;14.07;12.45;;;1.20;99.90;;;;;;4981604;28;20228;-45
2021/01/23 10:08:54;;;;;;;14.43;11.38;;;1.10;99.90;;;;;;4969122;28;20237;-48
2021/01/23 10:11:26;;;;;;;14.48;12.38;;;1.10;99.90;;;;;;4969027;28;20240;-47
2021/01/23 10:13:56;;;;;;;11.77;10.68;;;1.00;99.90;;;;;;4985305;28;20208;-47
2021/01/23 10:16:26;;;;;;;11.90;10.65;;;1.00;99.90;;;;;;4979015;28;20205;-46
2021/01/23 10:18:57;;;;;;;11.75;10.15;;;1.00;99.90;;;;;;4974308;28;20205;-51
2021/01/23 10:21:27;;;;;;;17.80;12.48;;;1.00;99.90;;;;;;4984507;28;20283;-43
2021/01/23 10:23:57;;;;;;;16.02;13.20;;;1.00;99.90;;;;;;4981996;28;20205;-44
2021/01/23 10:26:29;;;;;;;16.08;13.38;;;1.00;99.90;;;;;;4968185;28;20213;-48
2021/01/23 10:28:59;;;;;;;17.20;13.52;;;1.00;99.90;;;;;;4971922;28;20213;-47
2021/01/23 10:31:29;;;;;;;19.30;14.85;;;1.00;99.90;;;;;;4983863;28;20217;-46
2021/01/23 10:33:59;;;;;;;16.30;12.90;;;0.90;99.90;;;;;;4985443;28;20247;-47
2021/01/23 10:36:29;;;;;;;14.35;12.52;;;0.90;99.90;;;;;;4985105;28;20286;-46
2021/01/23 10:38:59;;;;;;;17.98;10.75;;;0.90;99.90;;;;;;4982954;28;20205;-47
2021/01/23 10:41:30;;;;;;;11.18;9.20;;;0.90;99.90;;;;;;4974138;28;20237;-49
2021/01/23 10:44:01;;;;;;;9.88;8.95;;;0.90;99.90;;;;;;4974666;28;20200;-47
2021/01/23 10:46:31;;;;;;;13.25;8.80;;;0.90;99.90;;;;;;4970596;28;20216;-46
2021/01/23 10:49:01;;;;;;;12.02;9.20;;;0.90;99.90;;;;;;4982563;28;20273;-48
2021/01/23 10:51:31;;;;;;;10.52;9.52;;;0.90;99.90;;;;;;4970430;28;20205;-46
2021/01/23 10:54:01;;;;;;;12.13;9.60;;;0.90;99.90;;;;;;4977581;28;20209;-45
2021/01/23 10:56:33;;;;;;;10.10;9.10;;;0.90;99.90;;;;;;4977558;28;20235;-47
2021/01/23 10:59:03;;;;;;;12.20;10.23;;;0.80;99.90;;;;;;4984157;28;20208;-44
2021/01/23 11:01:33;;;;;;;13.25;10.18;;;0.80;99.90;;;;;;4982816;28;20279;-47
2021/01/23 11:04:04;;;;;;;12.30;10.52;;;0.80;99.90;;;;;;4977369;28;20197;-44
2021/01/23 11:06:34;;;;;;;10.63;9.52;;;0.80;99.90;;;;;;4975449;28;20189;-41
2021/01/23 11:09:05;;;;;;;12.02;10.35;;;0.80;99.90;;;;;;4984699;28;20220;-44
2021/01/23 11:11:36;;;;;;;15.98;11.45;;;0.80;99.90;;;;;;4983266;28;20347;-44
2021/01/23 11:14:07;;;;;;;11.32;10.13;;;0.70;99.90;;;;;;4974385;28;20213;-44
2021/01/23 11:16:37;;;;;;;13.27;11.30;;;0.70;99.90;;;;;;4973291;28;20209;-48
2021/01/23 11:19:12;;;;;;;16.60;12.77;;;0.60;99.90;;;;;;4981005;28;20212;-43
2021/01/23 11:21:45;;;;;;;13.88;12.05;;;0.60;99.90;;;;;;4978973;28;20224;-43
2021/01/23 11:24:15;;;;;;;10.60;9.57;;;0.60;99.90;;;;;;4973752;28;20197;-44
2021/01/23 11:26:48;;;;;;;12.43;9.55;;;0.60;99.90;;;;;;4972935;28;20205;-47
2021/01/23 11:29:18;;;;;;;11.02;9.88;;;0.70;99.90;;;;;;4965278;28;20205;-42
2021/01/23 11:31:48;;;;;;;12.00;10.00;;;0.60;99.90;;;;;;4964567;28;20245;-45
2021/01/23 11:34:18;;;;;;;8.90;7.85;;;0.60;99.90;;;;;;4973132;28;20205;-46
2021/01/23 11:36:48;;;;;;;8.40;7.65;;;0.70;99.90;;;;;;4965992;28;20208;-43
2021/01/23 11:39:18;;;;;;;9.98;8.10;;;0.60;99.90;;;;;;4979997;28;20205;-45
2021/01/23 11:41:49;;;;;;;8.48;7.68;;;0.60;99.90;;;;;;4982424;28;20229;-46
2021/01/23 11:44:19;;;;;;;8.90;8.00;;;0.60;99.90;;;;;;4982443;28;20625;-46
2021/01/23 11:46:49;;;;;;;13.50;10.48;;;0.60;99.90;;;;;;4980426;28;20270;-43
2021/01/23 11:49:19;;;;;;;10.73;8.68;;;0.60;99.90;;;;;;4979639;28;20248;-46
2021/01/23 11:51:49;;;;;;;10.05;9.05;;;0.50;99.90;;;;;;4982788;28;20597;-44
2021/01/23 11:54:19;;;;;;;11.50;9.35;;;0.40;99.90;;;;;;4977381;28;20503;-45
2021/01/23 11:56:50;;;;;;;11.10;8.60;;;0.40;99.90;;;;;;4983277;28;20298;-48
2021/01/23 11:59:20;;;;;;;9.90;8.90;;;0.40;99.90;;;;;;4984034;28;20236;-50
2021/01/23 12:01:50;;;;;;;10.02;8.98;;;0.40;99.90;;;;;;4967012;28;20236;-46
2021/01/23 12:04:21;;;;;;;11.18;9.98;;;0.40;99.90;;;;;;4973681;28;20585;-47
2021/01/23 12:06:51;;;;;;;11.30;9.73;;;0.30;99.90;;;;;;4982558;28;20188;-45
2021/01/23 12:09:21;;;;;;;10.70;9.10;;;0.30;99.90;;;;;;4983739;28;20733;-45
2021/01/23 12:11:53;;;;;;;11.05;8.35;;;0.30;99.90;;;;;;4982345;28;20279;-45
2021/01/23 12:14:23;;;;;;;10.93;9.77;;;0.20;99.90;;;;;;4983587;28;20212;-44
2021/01/23 12:16:53;;;;;;;12.15;8.00;;;0.20;99.90;;;;;;4983693;28;20212;-46
2021/01/23 12:19:23;;;;;;;8.93;8.02;;;0.20;99.90;;;;;;4984485;28;20262;-46
2021/01/23 12:21:53;;;;;;;10.18;8.00;;;0.20;99.90;;;;;;4980978;28;20228;-47
2021/01/23 12:24:24;;;;;;;9.35;8.32;;;0.20;99.90;;;;;;4965292;28;20205;-44
2021/01/23 12:26:55;;;;;;;8.30;7.40;;;0.20;99.90;;;;;;4972363;28;20788;-45
2021/01/23 12:29:25;;;;;;;8.40;7.03;;;0.30;99.90;;;;;;4971953;28;20209;-47
2021/01/23 12:31:55;;;;;;;7.60;6.90;;;0.30;99.90;;;;;;4964560;28;20260;-43
2021/01/23 12:34:25;;;;;;;7.78;6.97;;;0.30;99.90;;;;;;4965693;28;20260;-45
2021/01/23 12:36:55;;;;;;;8.77;6.72;;;0.30;99.90;;;;;;4974807;28;20201;-45
2021/01/23 12:39:25;;;;;;;9.18;7.80;;;0.30;99.90;;;;;;4983479;28;20236;-43
2021/01/23 12:41:57;;;;;;;8.38;7.22;;;0.20;99.90;;;;;;4975203;28;20239;-45
2021/01/23 12:44:27;;;;;;;8.43;7.53;;;0.20;99.90;;;;;;4982542;28;20208;-50
2021/01/23 12:46:57;;;;;;;8.88;8.00;;;0.10;99.90;;;;;;4967954;28;20651;-45
2021/01/23 12:49:27;;;;;;;8.57;7.78;;;0.10;99.90;;;;;;4983577;28;20196;-43
2021/01/23 12:51:57;;;;;;;9.43;8.43;;;0.20;99.90;;;;;;4972045;28;20216;-43
2021/01/23 12:54:27;;;;;;;9.85;7.55;;;0.10;99.90;;;;;;4965439;28;20264;-46
2021/01/23 12:56:58;;;;;;;8.15;7.10;;;0.00;99.90;;;;;;4981742;28;20205;-44
2021/01/23 12:59:29;;;;;;;7.60;6.78;;;0.00;99.90;;;;;;4983185;28;20219;-46
2021/01/23 13:01:59;;;;;;;7.30;6.70;;;0.10;99.90;;;;;;4972891;28;20221;-45
2021/01/23 13:04:29;;;;;;;7.60;6.88;;;0.10;99.90;;;;;;4978473;28;20247;-47
2021/01/23 13:06:59;;;;;;;8.55;7.55;;;0.20;99.90;;;;;;4986159;28;20345;-44
2021/01/23 13:09:29;;;;;;;8.30;7.30;;;0.10;99.90;;;;;;4978346;28;20205;-46
2021/01/23 13:12:01;;;;;;;9.43;7.40;;;0.10;99.90;;;;;;4980100;28;20291;-44